Time;durP1;ratioP1;P1;durP2;ratioP2;P2;SDS_P1;SDS_P2;PMS_P1;PMS_P2;Temp;Humidity;BMP_temperature;BMP_pressure;BME280_temperature;BME280_humidity;BME280_pressure;Samples;Min_cycle;Max_cycle;Signal;HPM_P1;HPM_P2
2023/07/27 00:01:22;;;;;;;0.20;0.20;;;24.00;71.00;;;;;;6420780;27;20029;-56
2023/07/27 00:04:24;;;;;;;0.13;0.13;;;24.30;71.00;;;;;;6378203;27;20038;-54
2023/07/27 00:07:26;;;;;;;0.40;0.30;;;24.20;71.40;;;;;;6431344;27;20059;-56
2023/07/27 00:10:28;;;;;;;0.10;0.10;;;24.30;71.30;;;;;;6430045;27;20951;-56
2023/07/27 00:13:37;;;;;;;0.20;0.20;;;24.00;70.90;;;;;;6447587;22;20069;-94
2023/07/27 00:17:00;;;;;;;0.20;0.20;;;21.70;66.90;;;;;;6372163;27;20311;-94
2023/07/27 00:20:25;;;;;;;0.20;0.10;;;23.30;73.90;;;;;;6371893;27;20161;-92
2023/07/27 00:23:36;;;;;;;0.30;0.30;;;23.70;73.50;;;;;;6322563;27;20073;-92
2023/07/27 00:26:50;;;;;;;0.35;0.30;;;22.80;70.80;;;;;;6372245;28;20129;-92
2023/07/27 00:30:02;;;;;;;0.30;0.30;;;24.50;71.70;;;;;;6320233;28;20133;-92
2023/07/27 00:33:13;;;;;;;0.20;0.20;;;22.40;71.50;;;;;;6257791;28;20032;-92
2023/07/27 00:36:29;;;;;;;0.30;0.30;;;24.60;73.10;;;;;;6320957;28;20051;-91
2023/07/27 00:39:49;;;;;;;0.25;0.25;;;21.60;71.40;;;;;;6304104;28;20044;-92
2023/07/27 00:43:12;;;;;;;0.30;0.30;;;24.00;86.10;;;;;;6317466;28;20048;-92
2023/07/27 00:46:18;;;;;;;0.30;0.30;;;23.70;72.50;;;;;;6313559;22;20089;-55
2023/07/27 00:49:20;;;;;;;0.30;0.30;;;24.20;70.50;;;;;;6337086;28;20128;-55
2023/07/27 00:52:24;;;;;;;0.30;0.30;;;24.00;70.60;;;;;;6340159;28;20046;-56
2023/07/27 00:55:26;;;;;;;0.63;0.40;;;24.20;70.30;;;;;;6354080;28;20057;-55
2023/07/27 00:58:28;;;;;;;0.30;0.25;;;24.20;70.30;;;;;;6340765;28;20040;-55
2023/07/27 01:01:30;;;;;;;0.30;0.28;;;24.00;70.80;;;;;;6329763;28;20118;-55
2023/07/27 01:04:36;;;;;;;0.50;0.40;;;24.00;70.30;;;;;;6334646;28;20036;-56
2023/07/27 01:07:41;;;;;;;0.40;0.40;;;24.00;70.40;;;;;;6341534;28;20043;-56
2023/07/27 01:10:57;;;;;;;0.38;0.35;;;24.00;85.70;;;;;;6424290;22;20055;-91
2023/07/27 01:14:21;;;;;;;0.47;0.40;;;18.40;67.60;;;;;;6259918;28;20051;-92
2023/07/27 01:26:22;;;;;;;0.50;0.50;;;23.80;69.30;;;;;;6314692;28;20055;-92
2023/07/27 01:30:19;;;;;;;0.60;0.35;;;22.70;66.60;;;;;;6231549;28;20060;-92
2023/07/27 01:37:56;;;;;;;0.60;0.50;;;23.90;69.20;;;;;;6314270;28;20415;-91
2023/07/27 01:56:49;;;;;;;0.47;0.40;;;24.20;70.60;;;;;;6264625;28;20115;-91
2023/07/27 02:00:26;;;;;;;1.48;0.50;;;22.20;65.60;;;;;;6298359;28;20024;-92
2023/07/27 02:15:14;;;;;;;1.10;0.50;;;23.70;68.30;;;;;;6341791;28;20056;-93
2023/07/27 02:18:47;;;;;;;0.57;0.40;;;22.50;69.10;;;;;;6282148;28;20039;-93
2023/07/27 02:37:50;;;;;;;0.47;0.40;;;21.00;65.10;;;;;;6299234;28;20044;-93
2023/07/27 02:45:21;;;;;;;0.38;0.38;;;23.80;68.10;;;;;;6273940;28;20040;-93
2023/07/27 02:49:17;;;;;;;0.47;0.40;;;21.80;65.20;;;;;;6310562;28;20188;-92
2023/07/27 03:04:39;;;;;;;0.50;0.50;;;25.60;70.70;;;;;;6193005;28;20060;-93
2023/07/27 03:39:13;;;;;;;0.60;0.50;;;21.90;65.20;;;;;;6124676;28;20047;-93
2023/07/27 03:46:24;;;;;;;0.50;0.30;;;23.70;69.90;;;;;;6200722;23;20038;-92
2023/07/27 03:54:03;;;;;;;0.50;0.40;;;23.60;70.90;;;;;;6192479;23;20131;-43
2023/07/27 03:57:13;;;;;;;0.50;0.50;;;23.70;68.90;;;;;;6163613;28;20049;-46
2023/07/27 04:00:15;;;;;;;0.50;0.32;;;23.80;69.40;;;;;;6182300;28;20100;-47
2023/07/27 04:03:16;;;;;;;0.60;0.52;;;23.60;69.40;;;;;;6180263;28;20058;-45
2023/07/27 04:06:18;;;;;;;0.63;0.47;;;24.50;69.90;;;;;;6181179;28;20034;-43
2023/07/27 04:09:20;;;;;;;0.50;0.45;;;23.80;69.00;;;;;;6179209;28;20047;-45
2023/07/27 04:12:21;;;;;;;6.22;1.73;;;24.00;69.60;;;;;;6183823;28;20042;-48
2023/07/27 04:15:23;;;;;;;0.68;0.55;;;23.90;69.80;;;;;;6204292;28;20035;-43
2023/07/27 04:18:24;;;;;;;5.63;0.60;;;23.70;69.80;;;;;;6202714;28;20049;-43
2023/07/27 04:21:26;;;;;;;1.25;0.50;;;23.80;69.40;;;;;;6202142;28;20491;-47
2023/07/27 04:24:28;;;;;;;6.53;0.73;;;23.80;69.50;;;;;;6202139;28;20094;-46
2023/07/27 04:27:29;;;;;;;4.28;0.52;;;23.60;69.10;;;;;;6201670;28;20023;-45
2023/07/27 04:30:31;;;;;;;2.97;0.82;;;23.90;69.60;;;;;;6201511;28;20031;-43
2023/07/27 04:33:32;;;;;;;2.42;0.50;;;23.70;69.20;;;;;;6197997;28;20030;-43
2023/07/27 04:36:34;;;;;;;4.72;0.52;;;23.80;69.60;;;;;;6196664;28;20030;-43
2023/07/27 04:39:36;;;;;;;4.85;0.93;;;23.80;69.30;;;;;;6198381;28;20087;-44
2023/07/27 04:42:38;;;;;;;2.45;0.47;;;23.70;69.60;;;;;;6200333;28;20065;-44
2023/07/27 04:45:39;;;;;;;3.25;0.80;;;23.80;69.70;;;;;;6199512;28;20033;-44
2023/07/27 04:48:41;;;;;;;2.58;0.40;;;23.70;69.80;;;;;;6197536;28;20098;-44
2023/07/27 04:51:42;;;;;;;1.80;0.77;;;23.80;70.40;;;;;;6198998;28;20037;-48
2023/07/27 04:54:44;;;;;;;1.67;0.50;;;23.40;69.60;;;;;;6197326;28;20034;-44
2023/07/27 04:57:46;;;;;;;1.05;0.45;;;23.30;69.50;;;;;;6196690;28;20058;-44
2023/07/27 05:00:52;;;;;;;0.60;0.50;;;23.60;69.80;;;;;;6198139;28;20037;-43
2023/07/27 05:03:54;;;;;;;0.55;0.43;;;23.60;70.50;;;;;;6191716;28;20043;-43
2023/07/27 05:06:55;;;;;;;0.70;0.50;;;23.60;69.60;;;;;;6190816;28;20038;-43
2023/07/27 05:09:57;;;;;;;1.38;0.50;;;23.70;70.40;;;;;;6196115;28;20054;-43
2023/07/27 05:12:59;;;;;;;0.93;0.50;;;23.40;69.60;;;;;;6197694;28;20026;-45
2023/07/27 05:16:00;;;;;;;;;;;23.70;70.70;;;;;;6194464;28;20047;-43
2023/07/27 05:19:02;;;;;;;0.82;0.50;;;23.80;71.10;;;;;;6177139;28;19933;-46
2023/07/27 05:22:04;;;;;;;0.60;0.40;;;23.60;69.80;;;;;;6193334;28;20039;-44
2023/07/27 05:25:08;;;;;;;0.77;0.50;;;23.50;70.50;;;;;;6193367;28;20027;-45
2023/07/27 05:28:10;;;;;;;0.70;0.45;;;23.40;70.30;;;;;;6193330;28;20050;-45
2023/07/27 05:31:11;;;;;;;0.77;0.70;;;23.70;71.20;;;;;;6194073;28;20041;-49
2023/07/27 05:34:13;;;;;;;0.73;0.63;;;23.70;70.10;;;;;;6192699;28;20046;-44
2023/07/27 05:37:14;;;;;;;0.63;0.47;;;23.60;71.10;;;;;;6175721;28;20046;-43
2023/07/27 05:40:17;;;;;;;1.02;0.60;;;23.50;70.00;;;;;;6193157;28;20047;-48
2023/07/27 05:43:18;;;;;;;1.73;0.55;;;23.70;70.50;;;;;;6193890;28;20045;-44
2023/07/27 05:46:19;;;;;;;0.70;0.50;;;23.60;70.20;;;;;;6192611;28;20061;-43
2023/07/27 05:49:21;;;;;;;0.95;0.50;;;23.60;70.90;;;;;;6191899;28;20031;-44
2023/07/27 05:52:23;;;;;;;0.88;0.50;;;23.70;70.50;;;;;;6188494;28;20062;-46
2023/07/27 05:55:25;;;;;;;0.80;0.60;;;23.40;71.00;;;;;;6184280;28;20041;-43
2023/07/27 05:58:26;;;;;;;0.50;0.50;;;23.60;70.10;;;;;;6183688;28;20042;-45
2023/07/27 06:01:30;;;;;;;0.80;0.60;;;23.70;71.30;;;;;;6182877;28;20046;-46
2023/07/27 06:04:36;;;;;;;0.68;0.60;;;23.60;70.10;;;;;;6185528;28;20046;-47
2023/07/27 06:07:38;;;;;;;0.60;0.40;;;23.60;70.90;;;;;;6187585;28;20151;-46
2023/07/27 06:10:40;;;;;;;0.57;0.50;;;23.50;70.50;;;;;;6191939;28;20043;-46
2023/07/27 06:13:41;;;;;;;0.77;0.50;;;23.40;71.10;;;;;;6192191;28;20094;-43
2023/07/27 06:16:43;;;;;;;0.65;0.65;;;23.50;70.80;;;;;;6190517;28;20064;-44
2023/07/27 06:19:45;;;;;;;0.50;0.40;;;23.30;71.20;;;;;;6190653;28;20039;-43
2023/07/27 06:22:46;;;;;;;0.80;0.50;;;23.60;70.30;;;;;;6185048;28;20042;-46
2023/07/27 06:25:49;;;;;;;1.00;0.60;;;23.50;70.70;;;;;;6182463;28;20047;-43
2023/07/27 06:28:51;;;;;;;0.68;0.65;;;23.60;71.10;;;;;;6165777;28;20047;-49
2023/07/27 06:31:52;;;;;;;1.08;0.75;;;23.60;71.10;;;;;;6181346;28;20043;-47
2023/07/27 06:34:54;;;;;;;0.65;0.47;;;23.60;71.40;;;;;;6181254;28;20481;-45
2023/07/27 06:37:56;;;;;;;0.70;0.60;;;23.70;71.60;;;;;;6182538;28;20035;-45
2023/07/27 06:40:58;;;;;;;0.70;0.50;;;23.60;71.10;;;;;;6182698;28;20053;-46
2023/07/27 06:43:59;;;;;;;0.90;0.80;;;23.60;71.10;;;;;;6177993;28;20031;-45
2023/07/27 06:47:01;;;;;;;0.85;0.70;;;23.50;70.80;;;;;;6180199;28;20038;-43
2023/07/27 06:50:06;;;;;;;0.80;0.70;;;23.70;71.30;;;;;;6177839;28;20093;-45
2023/07/27 06:53:08;;;;;;;0.93;0.80;;;23.80;71.10;;;;;;6176075;28;20121;-49
2023/07/27 06:56:14;;;;;;;0.88;0.60;;;23.60;71.20;;;;;;6180553;28;20042;-45
2023/07/27 06:59:17;;;;;;;1.00;0.70;;;24.40;71.80;;;;;;6149026;28;20073;-44
2023/07/27 07:02:18;;;;;;;1.00;0.80;;;23.50;71.20;;;;;;6152628;29;20050;-48
2023/07/27 07:05:22;;;;;;;0.85;0.70;;;23.70;71.40;;;;;;6134856;29;20035;-45
2023/07/27 07:08:24;;;;;;;1.10;0.90;;;23.60;71.80;;;;;;6157942;29;20047;-45
2023/07/27 07:11:26;;;;;;;1.70;0.98;;;23.40;71.20;;;;;;6161508;29;20178;-45
2023/07/27 07:14:28;;;;;;;1.92;1.20;;;23.60;71.70;;;;;;6169589;28;20128;-44
2023/07/27 07:17:29;;;;;;;1.10;0.95;;;23.50;91.10;;;;;;6173234;28;20134;-46
2023/07/27 07:20:31;;;;;;;1.08;0.90;;;23.60;73.50;;;;;;6174915;28;20032;-43
2023/07/27 07:23:36;;;;;;;1.00;0.80;;;23.70;73.00;;;;;;6173641;28;20039;-43
2023/07/27 07:26:38;;;;;;;2.17;0.98;;;23.70;73.30;;;;;;6168684;28;20035;-46
2023/07/27 07:29:43;;;;;;;1.15;0.90;;;23.50;72.50;;;;;;6149626;29;20051;-46
2023/07/27 07:32:45;;;;;;;1.02;0.70;;;23.60;73.10;;;;;;6150774;29;20059;-44
2023/07/27 07:35:47;;;;;;;0.82;0.70;;;23.40;72.50;;;;;;6153590;29;20046;-45
2023/07/27 07:38:48;;;;;;;0.90;0.70;;;23.80;73.60;;;;;;6150603;29;20054;-47
2023/07/27 07:41:50;;;;;;;1.23;0.90;;;23.60;73.40;;;;;;6150391;29;20049;-47
2023/07/27 07:44:54;;;;;;;1.80;1.00;;;23.70;73.70;;;;;;6150080;29;20043;-44
2023/07/27 07:47:56;;;;;;;1.10;0.80;;;23.60;73.40;;;;;;6151556;29;20047;-46
2023/07/27 07:50:57;;;;;;;1.08;0.77;;;23.60;73.40;;;;;;6149924;29;20435;-47
2023/07/27 07:53:59;;;;;;;1.17;0.90;;;23.50;73.30;;;;;;6157127;29;20048;-44
2023/07/27 07:57:01;;;;;;;0.70;0.60;;;23.60;73.40;;;;;;6159281;28;20043;-46
2023/07/27 08:00:04;;;;;;;1.00;0.80;;;23.60;73.40;;;;;;6159341;28;20054;-42
2023/07/27 08:03:15;;;;;;;1.17;0.90;;;23.40;73.50;;;;;;6164127;29;20071;-45
2023/07/27 08:06:17;;;;;;;1.10;1.00;;;23.80;73.00;;;;;;6164775;29;20111;-46
2023/07/27 08:09:21;;;;;;;1.35;0.90;;;23.70;73.20;;;;;;6152814;29;20565;-47
2023/07/27 08:12:23;;;;;;;0.98;0.77;;;23.70;72.60;;;;;;6161200;29;20046;-46
2023/07/27 08:15:25;;;;;;;0.93;0.80;;;23.50;72.90;;;;;;6165002;29;20039;-45
2023/07/27 08:18:28;;;;;;;1.00;0.90;;;23.70;72.80;;;;;;6159582;28;20242;-45
2023/07/27 08:21:30;;;;;;;1.17;0.90;;;23.60;73.30;;;;;;6151222;29;20078;-46
2023/07/27 08:24:36;;;;;;;1.40;1.13;;;23.90;72.90;;;;;;6161007;29;20043;-47
2023/07/27 08:27:38;;;;;;;1.00;0.90;;;23.80;72.90;;;;;;6156369;29;20103;-45
2023/07/27 08:30:41;;;;;;;1.10;0.80;;;22.30;71.40;;;;;;6156470;29;20035;-47
2023/07/27 08:33:43;;;;;;;1.08;0.98;;;23.90;72.70;;;;;;6159665;29;20039;-46
2023/07/27 08:36:47;;;;;;;1.45;1.23;;;23.60;72.20;;;;;;6165526;29;20054;-43
2023/07/27 08:39:49;;;;;;;1.42;1.08;;;23.70;72.60;;;;;;6155179;29;20054;-45
2023/07/27 08:42:51;;;;;;;1.20;0.95;;;23.90;72.30;;;;;;6152561;29;20023;-46
2023/07/27 08:45:53;;;;;;;1.33;1.00;;;23.70;72.50;;;;;;6161822;29;20046;-46
2023/07/27 08:48:55;;;;;;;1.38;1.15;;;23.70;72.40;;;;;;6170308;29;20102;-44
2023/07/27 08:51:57;;;;;;;2.53;1.10;;;23.70;72.50;;;;;;6162423;29;20115;-45
2023/07/27 08:54:58;;;;;;;1.40;1.10;;;23.90;72.90;;;;;;6166112;29;20087;-45
2023/07/27 08:58:01;;;;;;;1.27;1.10;;;23.90;72.70;;;;;;6157886;28;20048;-46
2023/07/27 09:01:02;;;;;;;1.33;1.00;;;23.80;72.50;;;;;;6154974;29;20097;-45
2023/07/27 09:04:05;;;;;;;1.50;1.25;;;23.80;72.70;;;;;;6155665;29;20049;-47
2023/07/27 09:07:07;;;;;;;1.17;0.95;;;23.80;72.40;;;;;;6146091;29;20051;-45
2023/07/27 09:10:10;;;;;;;1.17;1.00;;;23.80;72.60;;;;;;6150662;28;20043;-48
2023/07/27 09:13:12;;;;;;;1.65;1.10;;;23.80;72.40;;;;;;6157633;29;20046;-47
2023/07/27 09:16:14;;;;;;;1.30;1.10;;;23.90;72.60;;;;;;6164932;29;20090;-44
2023/07/27 09:19:17;;;;;;;1.55;1.00;;;23.70;72.50;;;;;;6162785;29;20055;-44
2023/07/27 09:22:19;;;;;;;1.20;0.90;;;23.60;72.40;;;;;;6148393;29;20043;-45
2023/07/27 09:25:22;;;;;;;1.48;0.93;;;24.00;72.50;;;;;;6164781;29;20086;-45
2023/07/27 09:28:25;;;;;;;1.67;1.08;;;24.00;72.70;;;;;;6163149;29;20096;-46
2023/07/27 09:31:32;;;;;;;1.42;1.13;;;23.90;72.60;;;;;;6156090;29;20039;-47
2023/07/27 09:34:37;;;;;;;1.48;1.15;;;24.80;73.20;;;;;;6147989;29;20068;-46
2023/07/27 09:37:42;;;;;;;1.63;1.30;;;23.90;72.70;;;;;;6138691;29;20044;-46
2023/07/27 09:40:48;;;;;;;1.15;1.00;;;24.20;72.90;;;;;;6143042;29;20501;-46
2023/07/27 09:43:55;;;;;;;1.30;1.08;;;24.00;72.50;;;;;;6146077;29;20205;-45
2023/07/27 09:46:56;;;;;;;1.17;1.05;;;24.10;72.70;;;;;;6143411;29;20047;-44
2023/07/27 09:50:00;;;;;;;1.83;1.10;;;24.00;72.70;;;;;;6143368;29;20101;-43
2023/07/27 09:53:02;;;;;;;1.70;1.10;;;24.10;73.30;;;;;;6149259;29;20043;-47
2023/07/27 09:56:07;;;;;;;1.38;1.20;;;23.90;73.50;;;;;;6152825;29;20078;-47
2023/07/27 09:59:10;;;;;;;1.63;1.10;;;24.00;73.10;;;;;;6150778;28;20050;-47
2023/07/27 10:02:12;;;;;;;1.23;1.05;;;24.00;73.00;;;;;;6151674;29;20168;-48
2023/07/27 10:05:14;;;;;;;1.90;1.50;;;23.90;73.10;;;;;;6138677;29;20039;-47
2023/07/27 10:08:16;;;;;;;2.50;1.23;;;24.00;73.10;;;;;;6164489;29;20062;-46
2023/07/27 10:11:29;;;;;;;1.90;1.17;;;23.90;73.00;;;;;;6147851;29;20074;-43
2023/07/27 10:14:32;;;;;;;1.42;1.20;;;23.70;73.20;;;;;;6166974;29;20027;-48
2023/07/27 10:17:41;;;;;;;1.20;1.02;;;23.70;72.90;;;;;;6165874;29;20157;-48
2023/07/27 10:20:42;;;;;;;1.75;1.30;;;23.70;72.70;;;;;;6147277;29;20039;-49
2023/07/27 10:23:53;;;;;;;1.52;1.10;;;24.00;73.30;;;;;;6164031;28;20066;-47
2023/07/27 10:26:55;;;;;;;1.20;1.10;;;24.00;73.20;;;;;;6146813;28;20050;-47
2023/07/27 10:30:11;;;;;;;1.13;1.00;;;23.60;73.20;;;;;;6163982;29;20155;-47
2023/07/27 10:33:16;;;;;;;1.38;1.20;;;24.10;73.20;;;;;;6147133;29;20046;-48
2023/07/27 10:36:20;;;;;;;1.45;1.27;;;24.00;73.40;;;;;;6163317;28;20057;-47
2023/07/27 10:39:27;;;;;;;1.42;1.02;;;23.90;73.10;;;;;;6164520;28;20094;-47
2023/07/27 10:42:34;;;;;;;1.27;1.15;;;24.00;73.80;;;;;;6148969;29;20155;-48
2023/07/27 10:45:39;;;;;;;1.45;1.00;;;24.00;73.00;;;;;;6167381;28;20050;-46
2023/07/27 10:48:57;;;;;;;1.33;0.90;;;24.00;71.10;;;;;;6167476;28;20043;-47
2023/07/27 10:51:58;;;;;;;1.55;1.35;;;24.00;73.20;;;;;;6167500;29;20047;-46
2023/07/27 10:55:03;;;;;;;1.40;1.20;;;24.20;73.70;;;;;;6166996;28;20194;-44
2023/07/27 10:58:06;;;;;;;1.58;1.38;;;24.10;73.10;;;;;;6166548;28;20064;-45
2023/07/27 11:01:10;;;;;;;1.83;1.55;;;24.00;73.20;;;;;;6169239;28;20031;-47
2023/07/27 11:04:14;;;;;;;1.80;1.42;;;23.70;72.90;;;;;;6168330;28;20047;-44
2023/07/27 11:07:25;;;;;;;1.80;1.40;;;24.00;72.90;;;;;;6152220;29;20127;-48
2023/07/27 11:10:29;;;;;;;;;;;24.20;73.00;;;;;;6164908;29;20035;-44
2023/07/27 11:13:31;;;;;;;1.42;1.15;;;24.20;73.20;;;;;;6162267;29;19930;-45
2023/07/27 11:16:37;;;;;;;1.20;1.10;;;24.10;72.80;;;;;;6151597;29;20031;-44
2023/07/27 11:19:39;;;;;;;2.65;1.40;;;24.00;72.70;;;;;;6164930;29;20031;-44
2023/07/27 11:22:42;;;;;;;1.67;1.35;;;23.90;72.90;;;;;;6165788;29;20134;-45
2023/07/27 11:25:43;;;;;;;2.28;1.25;;;24.00;72.50;;;;;;6158386;29;20046;-48
2023/07/27 11:28:45;;;;;;;2.22;1.50;;;23.70;72.30;;;;;;6157475;29;20035;-47
2023/07/27 11:31:56;;;;;;;1.60;1.25;;;24.10;72.90;;;;;;6155854;29;20047;-49
2023/07/27 11:34:58;;;;;;;1.70;1.30;;;23.60;72.60;;;;;;6137186;29;20039;-45
2023/07/27 11:38:00;;;;;;;1.95;1.48;;;23.80;72.70;;;;;;6153596;29;20051;-44
2023/07/27 11:41:04;;;;;;;2.10;1.40;;;24.20;72.80;;;;;;6135209;29;20059;-46
2023/07/27 11:44:27;;;;;;;1.95;1.20;;;;;;;;;;6135584;29;20086;-49
2023/07/27 11:47:36;;;;;;;1.27;1.15;;;23.80;74.30;;;;;;6142017;29;20040;-48
2023/07/27 11:50:40;;;;;;;2.72;1.45;;;;;;;;;;6148795;29;20043;-45
2023/07/27 11:53:45;;;;;;;1.70;1.40;;;23.90;91.20;;;;;;6161450;29;20050;-44
2023/07/27 11:56:50;;;;;;;2.17;1.30;;;23.80;90.50;;;;;;6146139;28;20499;-48
2023/07/27 12:00:02;;;;;;;1.45;1.00;;;24.20;73.30;;;;;;6139292;29;20284;-44
2023/07/27 12:03:13;;;;;;;1.63;1.17;;;24.00;73.40;;;;;;6129418;29;20058;-46
2023/07/27 12:06:25;;;;;;;1.63;1.05;;;24.10;73.00;;;;;;6145044;29;20058;-45
2023/07/27 12:09:29;;;;;;;2.13;1.10;;;24.00;73.30;;;;;;6128039;29;20047;-44
2023/07/27 12:12:31;;;;;;;2.17;1.30;;;24.20;73.30;;;;;;6144535;29;20068;-44
2023/07/27 12:15:38;;;;;;;1.75;1.35;;;24.00;74.00;;;;;;6143354;29;20059;-44
2023/07/27 12:18:40;;;;;;;1.85;1.50;;;24.30;73.10;;;;;;6146689;29;20087;-45
2023/07/27 12:21:47;;;;;;;1.17;1.00;;;24.20;73.10;;;;;;6169796;28;20046;-46
2023/07/27 12:24:49;;;;;;;1.27;0.88;;;24.10;72.80;;;;;;6170054;29;20049;-44
2023/07/27 12:27:50;;;;;;;1.90;1.50;;;24.30;73.20;;;;;;6164815;29;20043;-44
2023/07/27 12:31:11;;;;;;;1.48;1.10;;;24.20;73.10;;;;;;6150194;29;20170;-46
2023/07/27 12:34:16;;;;;;;1.73;1.20;;;24.30;73.40;;;;;;6163880;29;20047;-45
2023/07/27 12:37:22;;;;;;;1.70;1.10;;;24.80;73.40;;;;;;6164501;29;20050;-44
2023/07/27 12:40:27;;;;;;;1.10;0.90;;;24.10;73.90;;;;;;6149393;29;20055;-45
2023/07/27 12:43:32;;;;;;;1.75;1.20;;;24.30;72.80;;;;;;6173992;28;20043;-44
2023/07/27 12:46:33;;;;;;;1.83;1.00;;;24.50;73.20;;;;;;6170935;28;20063;-44
2023/07/27 12:49:39;;;;;;;1.52;1.10;;;24.50;72.80;;;;;;6171187;29;20046;-47
2023/07/27 12:52:41;;;;;;;1.58;0.70;;;24.30;73.00;;;;;;6166091;29;20046;-43
2023/07/27 12:55:43;;;;;;;1.63;0.90;;;24.40;72.60;;;;;;6169294;29;20083;-43
2023/07/27 12:58:44;;;;;;;1.10;0.90;;;24.30;73.10;;;;;;6169533;28;20039;-47
2023/07/27 13:01:46;;;;;;;0.98;0.80;;;24.50;73.00;;;;;;6169879;29;20035;-47
2023/07/27 13:04:48;;;;;;;1.30;1.13;;;24.60;73.40;;;;;;6168512;29;20031;-44
2023/07/27 13:07:50;;;;;;;0.85;0.80;;;24.50;73.20;;;;;;6159796;29;20066;-45
2023/07/27 13:10:51;;;;;;;1.20;0.80;;;24.70;74.10;;;;;;6146608;29;20043;-47
2023/07/27 13:13:53;;;;;;;1.17;0.80;;;24.40;74.30;;;;;;6167347;29;20058;-47
2023/07/27 13:16:54;;;;;;;0.93;0.75;;;24.70;74.70;;;;;;6169605;29;20043;-44
2023/07/27 13:19:57;;;;;;;2.03;0.95;;;24.50;74.30;;;;;;6169391;29;20122;-45
2023/07/27 13:22:59;;;;;;;1.20;0.93;;;24.50;94.60;;;;;;6147803;29;20039;-48
2023/07/27 13:26:05;;;;;;;1.08;0.90;;;24.50;91.80;;;;;;6169287;29;20035;-46
2023/07/27 13:29:08;;;;;;;1.58;0.85;;;24.60;73.70;;;;;;6151648;29;20098;-47
2023/07/27 13:32:09;;;;;;;1.20;0.88;;;24.40;74.00;;;;;;6159939;29;20087;-43
2023/07/27 13:35:12;;;;;;;1.30;0.70;;;24.40;73.80;;;;;;6158554;29;20055;-47
2023/07/27 13:38:14;;;;;;;1.00;0.65;;;24.50;74.00;;;;;;6156078;29;20035;-44
2023/07/27 13:41:15;;;;;;;1.42;0.65;;;24.60;73.80;;;;;;6164022;29;20063;-45
2023/07/27 13:44:18;;;;;;;1.02;0.70;;;24.40;74.00;;;;;;6147501;29;20038;-44
2023/07/27 13:47:19;;;;;;;0.80;0.57;;;24.30;74.60;;;;;;6155374;29;20043;-46
2023/07/27 13:50:21;;;;;;;2.25;0.65;;;24.60;74.50;;;;;;6160473;29;20541;-45
2023/07/27 13:53:23;;;;;;;1.00;0.60;;;24.70;74.60;;;;;;6157046;29;20043;-43
2023/07/27 13:56:25;;;;;;;0.50;0.50;;;24.70;74.10;;;;;;6160157;28;20039;-46
2023/07/27 13:59:29;;;;;;;0.88;0.63;;;24.70;74.20;;;;;;6158585;29;20128;-45
2023/07/27 14:02:31;;;;;;;0.70;0.57;;;24.50;74.00;;;;;;6165277;29;20031;-44
2023/07/27 14:05:36;;;;;;;0.70;0.70;;;24.50;74.60;;;;;;6140781;29;20452;-43
2023/07/27 14:08:38;;;;;;;1.33;0.73;;;24.60;74.60;;;;;;6163457;29;20035;-46
2023/07/27 14:11:42;;;;;;;1.10;0.55;;;24.60;74.90;;;;;;6141441;29;20059;-45
2023/07/27 14:14:46;;;;;;;1.17;0.50;;;24.90;74.80;;;;;;6162370;29;20055;-44
2023/07/27 14:17:48;;;;;;;1.30;0.68;;;24.50;74.70;;;;;;6157545;29;20120;-44
2023/07/27 14:20:50;;;;;;;0.60;0.50;;;24.30;75.60;;;;;;6162308;29;20046;-45
2023/07/27 14:23:52;;;;;;;0.70;0.60;;;24.00;74.60;;;;;;6162570;29;20058;-44
2023/07/27 14:26:54;;;;;;;1.50;0.60;;;24.60;74.90;;;;;;6157219;29;20035;-45
2023/07/27 14:29:56;;;;;;;0.70;0.60;;;24.60;74.90;;;;;;6166177;29;20340;-44
2023/07/27 14:32:57;;;;;;;1.27;0.57;;;24.50;74.90;;;;;;6131339;29;20134;-48
2023/07/27 14:36:01;;;;;;;0.60;0.60;;;24.30;74.90;;;;;;6155921;29;20019;-44
2023/07/27 14:39:06;;;;;;;0.75;0.50;;;;;;;;;;6166603;29;20063;-44
2023/07/27 14:42:11;;;;;;;0.77;0.50;;;;;;;;;;6159131;29;20376;-47
2023/07/27 14:45:13;;;;;;;0.88;0.60;;;24.20;94.40;;;;;;6158454;29;20266;-45
2023/07/27 14:48:16;;;;;;;1.00;0.60;;;24.90;77.40;;;;;;6156125;29;20027;-46
2023/07/27 14:51:19;;;;;;;0.40;0.40;;;24.50;79.80;;;;;;6134609;29;20050;-43
2023/07/27 14:54:21;;;;;;;1.60;0.30;;;24.50;91.10;;;;;;6149767;29;20047;-45
2023/07/27 14:57:23;;;;;;;1.50;0.40;;;24.50;71.90;;;;;;6147545;28;20123;-46
2023/07/27 15:00:24;;;;;;;0.80;0.30;;;24.60;74.40;;;;;;6157652;29;20043;-47
2023/07/27 15:03:36;;;;;;;1.23;0.57;;;24.90;74.60;;;;;;6152985;29;20116;-43
2023/07/27 15:06:41;;;;;;;0.50;0.40;;;24.50;74.50;;;;;;6165733;29;20487;-45
2023/07/27 15:09:43;;;;;;;0.47;0.30;;;24.60;74.70;;;;;;6164604;28;20056;-44
2023/07/27 15:12:47;;;;;;;0.70;0.50;;;24.50;74.90;;;;;;6162022;29;20066;-44
2023/07/27 15:15:49;;;;;;;1.02;0.50;;;24.50;74.80;;;;;;6157505;29;20060;-45
2023/07/27 15:18:51;;;;;;;0.93;0.60;;;24.30;74.80;;;;;;6154178;29;20047;-45
2023/07/27 15:21:53;;;;;;;1.02;0.52;;;24.70;74.90;;;;;;6160530;29;20077;-46
2023/07/27 15:24:56;;;;;;;1.02;0.60;;;24.50;74.70;;;;;;6163112;29;20077;-46
2023/07/27 15:28:04;;;;;;;0.95;0.55;;;24.70;75.50;;;;;;6160509;29;20035;-46
2023/07/27 15:31:06;;;;;;;0.63;0.47;;;24.50;75.30;;;;;;6159063;29;20043;-45
2023/07/27 15:34:11;;;;;;;0.55;0.40;;;24.60;74.80;;;;;;6146476;29;20035;-45
2023/07/27 15:37:13;;;;;;;0.40;0.40;;;24.70;75.50;;;;;;6166237;29;20038;-44
2023/07/27 15:40:15;;;;;;;0.50;0.35;;;24.80;75.30;;;;;;6167214;29;20039;-46
2023/07/27 15:43:18;;;;;;;0.80;0.60;;;24.20;93.30;;;;;;6167944;29;20302;-43
2023/07/27 15:46:19;;;;;;;0.73;0.45;;;24.60;77.40;;;;;;6164474;29;20040;-43
2023/07/27 15:49:21;;;;;;;1.52;0.60;;;24.80;74.90;;;;;;6159367;29;20063;-44
2023/07/27 15:52:23;;;;;;;1.42;0.70;;;24.40;74.20;;;;;;6157949;29;20039;-46
2023/07/27 15:55:25;;;;;;;1.60;0.50;;;24.40;74.40;;;;;;6156494;29;20074;-46
2023/07/27 15:58:27;;;;;;;0.70;0.50;;;24.50;74.50;;;;;;6156918;28;20047;-44
2023/07/27 16:01:31;;;;;;;0.90;0.50;;;24.90;74.70;;;;;;6157350;29;20099;-43
2023/07/27 16:04:33;;;;;;;0.85;0.40;;;24.70;74.50;;;;;;6156334;29;20043;-46
2023/07/27 16:07:35;;;;;;;0.40;0.30;;;24.50;74.70;;;;;;6156538;29;20457;-47
2023/07/27 16:10:36;;;;;;;0.60;0.30;;;24.70;74.70;;;;;;6138881;29;20405;-44
2023/07/27 16:13:38;;;;;;;0.60;0.40;;;24.60;75.00;;;;;;6150751;29;20039;-46
2023/07/27 16:16:40;;;;;;;0.60;0.40;;;24.60;74.90;;;;;;6146792;29;20054;-43
2023/07/27 16:19:42;;;;;;;1.75;0.40;;;24.60;75.20;;;;;;6130670;28;20051;-47
2023/07/27 16:22:46;;;;;;;0.30;0.30;;;24.60;74.70;;;;;;6149284;29;20546;-46
2023/07/27 16:25:51;;;;;;;0.30;0.20;;;24.30;74.80;;;;;;6148485;29;20041;-46
2023/07/27 16:28:52;;;;;;;0.60;0.45;;;24.30;74.30;;;;;;6148406;29;20424;-47
2023/07/27 16:31:56;;;;;;;0.30;0.30;;;24.50;75.20;;;;;;6151096;29;20046;-44
2023/07/27 16:34:57;;;;;;;0.90;0.30;;;24.50;74.70;;;;;;6152234;29;20043;-46
2023/07/27 16:37:59;;;;;;;0.30;0.30;;;24.60;74.90;;;;;;6154245;29;20035;-43
2023/07/27 16:41:01;;;;;;;0.43;0.30;;;24.70;74.70;;;;;;6135196;29;20047;-48
2023/07/27 16:44:02;;;;;;;0.32;0.25;;;24.50;75.00;;;;;;6149383;29;20038;-46
2023/07/27 16:47:04;;;;;;;0.93;0.38;;;24.40;74.90;;;;;;6150834;29;20041;-46
2023/07/27 16:50:06;;;;;;;0.30;0.30;;;24.50;74.90;;;;;;6153714;29;20035;-44
2023/07/27 16:53:08;;;;;;;0.17;0.17;;;24.50;74.90;;;;;;6150474;29;20043;-46
2023/07/27 16:56:13;;;;;;;0.40;0.30;;;24.60;75.10;;;;;;6150835;29;20042;-46
2023/07/27 16:59:15;;;;;;;0.40;0.25;;;24.50;75.00;;;;;;6149090;28;20039;-46
2023/07/27 17:02:16;;;;;;;0.30;0.20;;;24.50;75.40;;;;;;6149980;29;20044;-45
2023/07/27 17:05:18;;;;;;;0.22;0.20;;;24.40;74.90;;;;;;6149237;29;20035;-47
2023/07/27 17:08:20;;;;;;;0.38;0.38;;;24.30;75.00;;;;;;6149229;29;20054;-46
2023/07/27 17:11:22;;;;;;;0.50;0.38;;;24.70;75.00;;;;;;6151778;29;20399;-44
2023/07/27 17:14:26;;;;;;;0.40;0.30;;;24.50;75.20;;;;;;6151391;29;20043;-45
2023/07/27 17:17:27;;;;;;;0.30;0.30;;;24.50;73.60;;;;;;6151315;29;20040;-47
2023/07/27 17:20:29;;;;;;;0.30;0.20;;;24.50;75.30;;;;;;6152804;29;20043;-44
2023/07/27 17:23:32;;;;;;;0.30;0.30;;;24.50;75.30;;;;;;6139548;29;20059;-42
2023/07/27 17:26:38;;;;;;;0.22;0.20;;;24.30;75.30;;;;;;6121902;29;20035;-44
2023/07/27 17:29:44;;;;;;;0.30;0.30;;;24.60;75.40;;;;;;6136149;29;20114;-45
2023/07/27 17:32:47;;;;;;;0.28;0.20;;;24.10;75.00;;;;;;6133860;28;20101;-47
2023/07/27 17:35:53;;;;;;;0.55;0.30;;;24.40;75.10;;;;;;6136772;29;20159;-47
2023/07/27 17:38:55;;;;;;;0.40;0.30;;;24.30;75.40;;;;;;6151781;29;20058;-45
2023/07/27 17:41:57;;;;;;;0.35;0.30;;;24.40;75.50;;;;;;6152898;29;20534;-46
2023/07/27 17:45:00;;;;;;;0.22;0.20;;;24.50;75.70;;;;;;6153135;29;20035;-46
2023/07/27 17:48:01;;;;;;;0.22;0.22;;;24.30;75.30;;;;;;6153192;29;20046;-45
2023/07/27 17:51:03;;;;;;;0.32;0.32;;;24.50;75.70;;;;;;6153219;29;20408;-46
2023/07/27 17:54:05;;;;;;;0.25;0.20;;;25.20;76.00;;;;;;6152164;29;20054;-45